Time;durP1;ratioP1;P1;durP2;ratioP2;P2;SDS_P1;SDS_P2;PMS_P1;PMS_P2;Temp;Humidity;BMP_temperature;BMP_pressure;BME280_temperature;BME280_humidity;BME280_pressure;Samples;Min_cycle;Max_cycle;Signal;HPM_P1;HPM_P2
2023/08/10 00:02:11;;;;;;;3.45;1.30;;;;;;;;;;5023510;28;20069;-80
2023/08/10 00:04:36;;;;;;;3.70;1.23;;;;;;;;;;5024074;28;20408;-80
2023/08/10 00:07:01;;;;;;;3.33;1.17;;;;;;;;;;5023484;28;20038;-80
2023/08/10 00:09:26;;;;;;;4.30;1.30;;;;;;;;;;5029938;28;20041;-80
2023/08/10 00:11:52;;;;;;;2.53;1.00;;;;;;;;;;5024869;28;20037;-79
2023/08/10 00:14:17;;;;;;;1.88;0.85;;;;;;;;;;5025665;28;20021;-80
2023/08/10 00:16:43;;;;;;;9.38;2.38;;;;;;;;;;5025923;28;20069;-80
2023/08/10 00:19:08;;;;;;;1.70;0.88;;;;;;;;;;5023075;28;20709;-80
2023/08/10 00:21:34;;;;;;;3.13;1.20;;;;;;;;;;5032490;28;20167;-80
2023/08/10 00:23:59;;;;;;;3.05;1.20;;;;;;;;;;5024329;28;20041;-80
2023/08/10 00:26:24;;;;;;;2.75;1.30;;;;;;;;;;5032219;28;20098;-80
2023/08/10 00:28:50;;;;;;;3.67;1.30;;;;;;;;;;5030154;28;20141;-80
2023/08/10 00:31:15;;;;;;;3.28;1.13;;;;;;;;;;5029652;28;20060;-80
2023/08/10 00:33:41;;;;;;;4.00;1.10;;;;;;;;;;5032546;28;20092;-80
2023/08/10 00:36:06;;;;;;;2.58;0.93;;;;;;;;;;5030029;28;20034;-80
2023/08/10 00:38:32;;;;;;;4.50;1.42;;;;;;;;;;5029199;28;20495;-80
2023/08/10 00:40:57;;;;;;;4.05;1.17;;;;;;;;;;5025149;28;20488;-80
2023/08/10 00:43:24;;;;;;;4.07;1.50;;;;;;;;;;5013994;28;20034;-81
2023/08/10 00:45:49;;;;;;;3.92;1.60;;;;;;;;;;5029440;28;20041;-79
2023/08/10 00:48:14;;;;;;;6.60;1.80;;;;;;;;;;5026176;28;20018;-80
2023/08/10 00:50:40;;;;;;;9.27;1.77;;;;;;;;;;5041211;28;20381;-81
2023/08/10 00:53:05;;;;;;;5.28;1.88;;;;;;;;;;5022407;28;20041;-81
2023/08/10 00:55:30;;;;;;;4.70;1.60;;;;;;;;;;5031937;28;20092;-80
2023/08/10 00:57:56;;;;;;;4.07;1.42;;;;;;;;;;5020405;28;20049;-79
2023/08/10 01:00:21;;;;;;;4.05;1.48;;;;;;;;;;5024278;28;20495;-80
2023/08/10 01:02:46;;;;;;;4.07;1.45;;;;;;;;;;5024007;28;20100;-79
2023/08/10 01:05:12;;;;;;;3.90;1.48;;;;;;;;;;5028426;28;20033;-80
2023/08/10 01:07:40;;;;;;;4.85;1.80;;;;;;;;;;5028371;28;20084;-80
2023/08/10 01:10:10;;;;;;;4.03;1.10;;;;;;;;;;5031723;28;20056;-81
2023/08/10 01:12:45;;;;;;;2.60;1.40;;;;;;;;;;5030688;28;20037;-80
2023/08/10 01:15:13;;;;;;;4.03;1.70;;;;;;;;;;5024232;28;20623;-80
2023/08/10 01:17:40;;;;;;;5.03;1.55;;;;;;;;;;5032335;28;20377;-80
2023/08/10 01:20:08;;;;;;;4.05;1.40;;;;;;;;;;5028623;28;20030;-80
2023/08/10 01:22:33;;;;;;;3.10;1.13;;;;;;;;;;5032977;28;20029;-80
2023/08/10 01:25:08;;;;;;;3.55;1.25;;;;;;;;;;5041754;28;20047;-80
2023/08/10 01:27:34;;;;;;;5.88;1.73;;;;;;;;;;5026769;28;20100;-80
2023/08/10 01:30:00;;;;;;;3.40;1.50;;;;;;;;;;5029785;28;20516;-80
2023/08/10 01:32:26;;;;;;;4.63;1.10;;;;;;;;;;5025620;28;20041;-81
2023/08/10 01:34:52;;;;;;;5.03;1.20;;;;;;;;;;5040215;28;20113;-80
2023/08/10 01:37:17;;;;;;;3.58;1.58;;;;;;;;;;5023878;28;20503;-81
2023/08/10 01:39:43;;;;;;;2.88;0.90;;;;;;;;;;5033528;28;20030;-81
2023/08/10 01:42:08;;;;;;;2.45;1.17;;;;;;;;;;5032808;28;20030;-81
2023/08/10 01:44:33;;;;;;;2.72;1.02;;;;;;;;;;5036446;28;20030;-80
2023/08/10 01:47:01;;;;;;;3.95;1.35;;;;;;;;;;5030239;28;20030;-81
2023/08/10 01:49:28;;;;;;;5.25;1.20;;;;;;;;;;5042446;28;20037;-80
2023/08/10 01:51:54;;;;;;;2.25;1.17;;;;;;;;;;5043693;28;20059;-80
2023/08/10 01:54:20;;;;;;;3.85;1.05;;;;;;;;;;5030946;28;20420;-81
2023/08/10 01:56:45;;;;;;;4.25;1.38;;;;;;;;;;5028671;28;20068;-80
2023/08/10 01:59:10;;;;;;;3.65;1.30;;;;;;;;;;5032024;28;20044;-81
2023/08/10 02:01:35;;;;;;;4.05;1.17;;;;;;;;;;5031687;28;20085;-79
2023/08/10 02:04:01;;;;;;;2.85;1.20;;;;;;;;;;5027038;28;20036;-80
2023/08/10 02:06:27;;;;;;;2.53;1.13;;;;;;;;;;5031009;28;20030;-80
2023/08/10 02:08:52;;;;;;;2.30;1.25;;;;;;;;;;5029324;28;20391;-80
2023/08/10 02:11:17;;;;;;;3.45;1.33;;;;;;;;;;5039826;28;20037;-80
2023/08/10 02:13:43;;;;;;;4.65;1.38;;;;;;;;;;5034044;28;20033;-81
2023/08/10 02:16:08;;;;;;;2.55;1.20;;;;;;;;;;5032102;28;20528;-81
2023/08/10 02:18:33;;;;;;;3.38;1.27;;;;;;;;;;5029477;28;20025;-81
2023/08/10 02:20:58;;;;;;;2.53;1.40;;;;;;;;;;5030256;28;20025;-81
2023/08/10 02:23:23;;;;;;;2.78;1.05;;;;;;;;;;5026445;28;20101;-81
2023/08/10 02:25:49;;;;;;;3.08;1.30;;;;;;;;;;5046029;28;20029;-81
2023/08/10 02:28:14;;;;;;;2.72;1.40;;;;;;;;;;5034205;28;20073;-81
2023/08/10 02:30:40;;;;;;;2.65;1.23;;;;;;;;;;5029056;28;20033;-81
2023/08/10 02:33:05;;;;;;;4.38;1.50;;;;;;;;;;5037556;28;20034;-82
2023/08/10 02:35:30;;;;;;;4.55;1.40;;;;;;;;;;5045485;28;20120;-79
2023/08/10 02:37:55;;;;;;;3.88;1.05;;;;;;;;;;5031614;28;20085;-79
2023/08/10 02:40:21;;;;;;;7.95;1.42;;;;;;;;;;5042788;28;20022;-79
2023/08/10 02:42:46;;;;;;;3.42;1.58;;;;;;;;;;5037477;28;20512;-79
2023/08/10 02:45:12;;;;;;;3.47;1.90;;;;;;;;;;5042605;28;20033;-78
2023/08/10 02:47:39;;;;;;;5.95;1.70;;;;;;;;;;5020235;28;20124;-78
2023/08/10 02:50:06;;;;;;;5.07;1.48;;;;;;;;;;5036133;28;20033;-78
2023/08/10 02:52:31;;;;;;;4.70;2.58;;;;;;;;;;5018979;28;20041;-78
2023/08/10 02:54:56;;;;;;;4.85;1.90;;;;;;;;;;5033188;28;20037;-78
2023/08/10 02:57:21;;;;;;;2.50;1.38;;;;;;;;;;5035214;28;20053;-77
2023/08/10 02:59:47;;;;;;;4.15;1.42;;;;;;;;;;5042817;28;20025;-78
2023/08/10 03:02:17;;;;;;;3.67;1.80;;;;;;;;;;5044384;28;20028;-78
2023/08/10 03:04:43;;;;;;;4.20;1.30;;;;;;;;;;5026517;28;20564;-78
2023/08/10 03:07:08;;;;;;;4.50;1.45;;;;;;;;;;5027131;28;20065;-78
2023/08/10 03:09:33;;;;;;;3.83;1.30;;;;;;;;;;5034314;28;20091;-78
2023/08/10 03:11:59;;;;;;;3.20;1.50;;;;;;;;;;5041595;28;20021;-78
2023/08/10 03:14:26;;;;;;;2.95;1.35;;;;;;;;;;5010122;28;20030;-78
2023/08/10 03:16:51;;;;;;;2.60;1.27;;;;;;;;;;5032736;28;20113;-78
2023/08/10 03:19:17;;;;;;;2.80;1.08;;;;;;;;;;5042181;28;20053;-78
2023/08/10 03:21:47;;;;;;;4.18;1.40;;;;;;;;;;5040817;28;20025;-78
2023/08/10 03:24:12;;;;;;;4.95;1.40;;;;;;;;;;5026717;28;20485;-78
2023/08/10 03:26:37;;;;;;;4.00;1.38;;;;;;;;;;5042725;28;20094;-78
2023/08/10 03:29:03;;;;;;;3.00;1.23;;;;;;;;;;5027098;28;20033;-78
2023/08/10 03:31:29;;;;;;;3.03;1.42;;;;;;;;;;5031059;28;20038;-77
2023/08/10 03:33:55;;;;;;;2.92;1.30;;;;;;;;;;5032580;28;20112;-77
2023/08/10 03:36:20;;;;;;;4.82;1.30;;;;;;;;;;5029324;28;20022;-78
2023/08/10 03:38:46;;;;;;;2.80;1.10;;;;;;;;;;5034375;28;20030;-78
2023/08/10 03:41:12;;;;;;;4.57;1.40;;;;;;;;;;5027708;28;20111;-78
2023/08/10 03:43:37;;;;;;;2.88;1.40;;;;;;;;;;5039315;28;20485;-78
2023/08/10 03:46:02;;;;;;;3.25;1.35;;;;;;;;;;5027582;28;20032;-77
2023/08/10 03:48:28;;;;;;;2.70;1.40;;;;;;;;;;5039602;28;20036;-78
2023/08/10 03:50:54;;;;;;;3.47;1.65;;;;;;;;;;5014811;28;20117;-78
2023/08/10 03:53:19;;;;;;;4.03;1.80;;;;;;;;;;5032913;28;20091;-78
2023/08/10 03:55:45;;;;;;;4.00;1.20;;;;;;;;;;5023552;28;20049;-78
2023/08/10 03:58:11;;;;;;;9.80;1.70;;;;;;;;;;5042554;28;20025;-79
2023/08/10 04:00:37;;;;;;;3.80;1.67;;;;;;;;;;5033386;28;20025;-79
2023/08/10 04:03:03;;;;;;;3.42;1.40;;;;;;;;;;5033797;28;20018;-79
2023/08/10 04:05:28;;;;;;;5.50;1.60;;;;;;;;;;5039116;28;20040;-79
2023/08/10 04:07:53;;;;;;;3.03;1.60;;;;;;;;;;5031145;28;20037;-79
2023/08/10 04:10:19;;;;;;;7.05;1.80;;;;;;;;;;5027322;28;20033;-78
2023/08/10 04:12:45;;;;;;;3.88;1.40;;;;;;;;;;5033132;28;20033;-77
2023/08/10 04:15:10;;;;;;;2.88;1.50;;;;;;;;;;5044030;28;20087;-79
2023/08/10 04:17:36;;;;;;;5.13;1.30;;;;;;;;;;5049705;28;20033;-78
2023/08/10 04:20:02;;;;;;;5.35;1.50;;;;;;;;;;5030510;28;20128;-78
2023/08/10 04:22:27;;;;;;;4.13;1.50;;;;;;;;;;5035409;28;20470;-79
2023/08/10 04:24:52;;;;;;;3.88;1.75;;;;;;;;;;5033761;28;20092;-78
2023/08/10 04:27:18;;;;;;;7.13;3.42;;;;;;;;;;5031858;28;20029;-78
2023/08/10 04:29:46;;;;;;;6.43;3.78;;;;;;;;;;5031710;28;20396;-79
2023/08/10 04:32:12;;;;;;;4.53;1.85;;;;;;;;;;5033145;28;20052;-78
2023/08/10 04:34:37;;;;;;;4.25;1.60;;;;;;;;;;5030656;28;20033;-77
2023/08/10 04:37:03;;;;;;;2.92;1.33;;;;;;;;;;5029006;28;20412;-79
2023/08/10 04:39:28;;;;;;;3.42;1.30;;;;;;;;;;5044884;28;20026;-78
2023/08/10 04:41:53;;;;;;;3.35;1.50;;;;;;;;;;5042338;28;20151;-78
2023/08/10 04:44:19;;;;;;;3.30;1.50;;;;;;;;;;5030484;28;20506;-78
2023/08/10 04:46:44;;;;;;;6.00;1.50;;;;;;;;;;5028849;28;20025;-78
2023/08/10 04:49:10;;;;;;;3.03;1.10;;;;;;;;;;5029008;28;20040;-77
2023/08/10 04:51:36;;;;;;;3.20;1.60;;;;;;;;;;5015895;28;20041;-78
2023/08/10 04:54:01;;;;;;;7.22;2.17;;;;;;;;;;5041556;28;20132;-78
2023/08/10 04:56:26;;;;;;;4.30;1.75;;;;;;;;;;5028710;28;20657;-80
2023/08/10 04:58:51;;;;;;;6.43;2.28;;;;;;;;;;5028963;28;20034;-79
2023/08/10 05:01:17;;;;;;;4.72;2.30;;;;;;;;;;5035819;28;20029;-79
2023/08/10 05:03:42;;;;;;;4.32;2.13;;;;;;;;;;5034404;28;20037;-79
2023/08/10 05:06:07;;;;;;;3.17;1.42;;;;;;;;;;5034219;28;20041;-79
2023/08/10 05:08:33;;;;;;;4.90;1.60;;;;;;;;;;5028406;28;20026;-79
2023/08/10 05:10:58;;;;;;;3.92;1.75;;;;;;;;;;5028015;28;20453;-79
2023/08/10 05:13:24;;;;;;;4.50;1.73;;;;;;;;;;5024527;28;20040;-79
2023/08/10 05:15:49;;;;;;;4.63;2.00;;;;;;;;;;5034015;28;20068;-80
2023/08/10 05:18:14;;;;;;;3.40;1.60;;;;;;;;;;5019763;28;20120;-79
2023/08/10 05:20:40;;;;;;;4.22;1.50;;;;;;;;;;5027629;28;20029;-80
2023/08/10 05:23:05;;;;;;;3.97;1.33;;;;;;;;;;5047249;28;20033;-79
2023/08/10 05:25:30;;;;;;;4.40;1.55;;;;;;;;;;5028311;28;20030;-79
2023/08/10 05:27:55;;;;;;;3.33;1.60;;;;;;;;;;5031755;28;20028;-79
2023/08/10 05:30:21;;;;;;;3.97;1.55;;;;;;;;;;5037827;28;20029;-80
2023/08/10 05:32:46;;;;;;;3.92;1.65;;;;;;;;;;5028854;28;20052;-79
2023/08/10 05:35:12;;;;;;;5.05;1.88;;;;;;;;;;5031368;28;20415;-80
2023/08/10 05:37:41;;;;;;;3.58;1.40;;;;;;;;;;5030700;28;20583;-80
2023/08/10 05:40:09;;;;;;;4.85;1.23;;;;;;;;;;5044583;28;20044;-80
2023/08/10 05:42:35;;;;;;;2.30;1.00;;;;;;;;;;5047442;28;20034;-79
2023/08/10 05:45:00;;;;;;;3.08;1.40;;;;;;;;;;5029812;28;20099;-79
2023/08/10 05:47:26;;;;;;;3.28;1.30;;;;;;;;;;5031524;28;20033;-79
2023/08/10 05:49:51;;;;;;;4.97;1.50;;;;;;;;;;5030043;28;20143;-79
2023/08/10 05:52:16;;;;;;;5.68;1.85;;;;;;;;;;5029836;28;20033;-80
2023/08/10 05:54:41;;;;;;;4.90;1.58;;;;;;;;;;5038211;28;20026;-79
2023/08/10 05:57:06;;;;;;;4.70;1.50;;;;;;;;;;5029735;28;20041;-80
2023/08/10 05:59:32;;;;;;;3.33;1.30;;;;;;;;;;5029723;28;20058;-79
2023/08/10 06:01:57;;;;;;;3.67;1.48;;;;;;;;;;5029514;28;20053;-80
2023/08/10 06:04:23;;;;;;;5.63;1.60;;;;;;;;;;5030760;28;20453;-80
2023/08/10 06:06:48;;;;;;;4.43;1.67;;;;;;;;;;5030343;28;20046;-79
2023/08/10 06:09:14;;;;;;;4.93;1.95;;;;;;;;;;5030802;28;20036;-80
2023/08/10 06:11:39;;;;;;;5.40;1.48;;;;;;;;;;5034363;28;20046;-79
2023/08/10 06:14:05;;;;;;;5.57;1.73;;;;;;;;;;5035448;28;20037;-80
2023/08/10 06:19:02;;;;;;;5.00;2.50;;;;;;;;;;4993893;28;20051;-78
2023/08/10 06:21:28;;;;;;;4.65;1.55;;;;;;;;;;4973932;28;20086;-78
2023/08/10 06:23:53;;;;;;;3.63;1.50;;;;;;;;;;4977583;28;20023;-77
2023/08/10 06:26:18;;;;;;;2.75;1.23;;;;;;;;;;4981411;28;20037;-78
2023/08/10 06:28:43;;;;;;;4.63;1.75;;;;;;;;;;4980527;28;20030;-77
2023/08/10 06:31:12;;;;;;;5.05;1.45;;;;;;;;;;4964270;28;20532;-78
2023/08/10 06:33:37;;;;;;;3.55;1.40;;;;;;;;;;4975502;28;20710;-78
2023/08/10 06:36:06;;;;;;;4.15;1.30;;;;;;;;;;4974717;28;20046;-78
2023/08/10 06:38:31;;;;;;;3.08;1.40;;;;;;;;;;4978408;28;20042;-76
2023/08/10 06:40:56;;;;;;;5.18;1.35;;;;;;;;;;4974423;28;20411;-78
2023/08/10 06:43:22;;;;;;;3.33;1.20;;;;;;;;;;4963695;28;20034;-77
2023/08/10 06:45:51;;;;;;;3.75;1.10;;;;;;;;;;4964004;28;20030;-78
2023/08/10 06:48:17;;;;;;;4.32;1.35;;;;;;;;;;4964828;28;20038;-78
2023/08/10 06:50:42;;;;;;;1.98;1.00;;;;;;;;;;4970464;28;20046;-76
2023/08/10 06:53:08;;;;;;;2.03;1.02;;;;;;;;;;4977039;28;20034;-76
2023/08/10 06:55:33;;;;;;;2.83;1.10;;;;;;;;;;4976602;28;20034;-77
2023/08/10 06:57:59;;;;;;;4.07;2.10;;;;;;;;;;4982117;28;20035;-78
2023/08/10 07:00:25;;;;;;;2.97;1.13;;;;;;;;;;4974973;28;20042;-79
2023/08/10 07:02:53;;;;;;;4.22;1.33;;;;;;;;;;4976959;28;20494;-77
2023/08/10 07:05:19;;;;;;;2.72;1.15;;;;;;;;;;4971056;28;20035;-78
2023/08/10 07:07:44;;;;;;;2.13;1.17;;;;;;;;;;4976314;28;20124;-76
2023/08/10 07:10:09;;;;;;;3.42;1.45;;;;;;;;;;4973672;28;20038;-77
2023/08/10 07:12:34;;;;;;;4.93;1.52;;;;;;;;;;4964622;28;20114;-79
2023/08/10 07:15:00;;;;;;;3.53;1.50;;;;;;;;;;4979645;28;20019;-79
2023/08/10 07:17:25;;;;;;;2.58;1.10;;;;;;;;;;4972545;28;20031;-77
2023/08/10 07:19:50;;;;;;;5.05;1.50;;;;;;;;;;4974049;28;20034;-77
2023/08/10 07:22:15;;;;;;;6.60;1.60;;;;;;;;;;4970100;28;20038;-78
2023/08/10 07:24:40;;;;;;;3.42;1.45;;;;;;;;;;4968621;28;20278;-77
2023/08/10 07:27:06;;;;;;;4.63;1.00;;;;;;;;;;4971992;28;20035;-78
2023/08/10 07:29:31;;;;;;;3.83;1.50;;;;;;;;;;4968946;28;20035;-78
2023/08/10 07:32:00;;;;;;;6.43;1.20;;;;;;;;;;4972856;28;20093;-78
2023/08/10 07:34:25;;;;;;;2.25;1.08;;;;;;;;;;4960439;28;20041;-78
2023/08/10 07:36:51;;;;;;;3.55;1.50;;;;;;;;;;4971066;28;20434;-78
2023/08/10 07:39:16;;;;;;;5.35;1.45;;;;;;;;;;4955968;28;20027;-77
2023/08/10 07:41:41;;;;;;;3.67;1.30;;;;;;;;;;4974656;28;20027;-78
2023/08/10 07:44:06;;;;;;;3.42;1.50;;;;;;;;;;4972307;28;20129;-77
2023/08/10 07:46:32;;;;;;;3.08;1.25;;;;;;;;;;4970828;28;20110;-79
2023/08/10 07:48:57;;;;;;;2.97;1.25;;;;;;;;;;4957621;28;20042;-78
2023/08/10 07:51:23;;;;;;;2.88;1.27;;;;;;;;;;4962418;28;20042;-77
2023/08/10 07:53:48;;;;;;;2.58;1.23;;;;;;;;;;4972672;28;20027;-78
2023/08/10 07:56:13;;;;;;;3.40;1.27;;;;;;;;;;4969184;28;20039;-78
2023/08/10 07:58:38;;;;;;;4.80;1.50;;;;;;;;;;4973754;28;20065;-78
2023/08/10 08:01:06;;;;;;;3.88;1.50;;;;;;;;;;4973768;28;20023;-77
2023/08/10 08:03:31;;;;;;;3.15;1.30;;;;;;;;;;4970717;28;20034;-77
2023/08/10 08:05:56;;;;;;;5.03;1.67;;;;;;;;;;4958448;28;20027;-78
2023/08/10 08:08:21;;;;;;;3.22;1.30;;;;;;;;;;4973167;28;20474;-77
2023/08/10 08:10:47;;;;;;;3.33;1.47;;;;;;;;;;4968746;28;20113;-78
2023/08/10 08:13:12;;;;;;;2.70;1.40;;;;;;;;;;4964979;28;20278;-78
2023/08/10 08:15:38;;;;;;;3.20;1.60;;;;;;;;;;4969044;28;20274;-77
2023/08/10 08:18:22;;;;;;;4.75;1.60;;;;;;;;;;4970411;28;20301;-78
2023/08/10 08:20:48;;;;;;;4.32;1.33;;;;;;;;;;4971021;28;20018;-78
2023/08/10 08:23:13;;;;;;;3.83;1.38;;;;;;;;;;4968688;28;20122;-78
2023/08/10 08:25:38;;;;;;;3.92;2.00;;;;;;;;;;4971670;28;20037;-77
2023/08/10 08:28:03;;;;;;;3.30;1.65;;;;;;;;;;4970274;28;20038;-78
2023/08/10 08:30:29;;;;;;;2.72;1.50;;;;;;;;;;4966448;28;20564;-77
2023/08/10 08:32:55;;;;;;;4.00;1.10;;;;;;;;;;4958711;28;20032;-77
2023/08/10 08:35:20;;;;;;;3.17;1.52;;;;;;;;;;4969000;28;20565;-76
2023/08/10 08:37:45;;;;;;;4.28;1.50;;;;;;;;;;4964954;28;20049;-78
2023/08/10 08:40:10;;;;;;;3.47;1.53;;;;;;;;;;4970253;28;20385;-77
2023/08/10 08:42:36;;;;;;;2.83;1.20;;;;;;;;;;4969017;28;20282;-77
2023/08/10 08:45:02;;;;;;;2.40;1.27;;;;;;;;;;4968867;28;20035;-79
2023/08/10 08:47:27;;;;;;;6.82;1.58;;;;;;;;;;4968165;28;20028;-77
2023/08/10 08:49:52;;;;;;;2.30;1.02;;;;;;;;;;4965382;28;20397;-77
2023/08/10 08:52:18;;;;;;;4.63;1.15;;;;;;;;;;4970501;28;20412;-77
2023/08/10 08:54:43;;;;;;;3.63;1.20;;;;;;;;;;4967218;28;20038;-77
2023/08/10 08:57:09;;;;;;;3.60;1.10;;;;;;;;;;4966977;28;20121;-78
2023/08/10 08:59:34;;;;;;;4.15;1.48;;;;;;;;;;4962211;28;20031;-78
2023/08/10 09:02:01;;;;;;;4.03;1.25;;;;;;;;;;4966532;28;20069;-78
2023/08/10 09:04:26;;;;;;;6.47;1.48;;;;;;;;;;4966755;28;20043;-78
2023/08/10 09:06:51;;;;;;;3.95;1.02;;;;;;;;;;4966199;28;20113;-77
2023/08/10 09:09:17;;;;;;;3.00;1.20;;;;;;;;;;4968832;28;20031;-77
2023/08/10 09:11:42;;;;;;;6.10;1.20;;;;;;;;;;4958163;28;20035;-78
2023/08/10 09:14:08;;;;;;;3.53;1.40;;;;;;;;;;4965312;28;20492;-77
2023/08/10 09:16:34;;;;;;;4.95;1.50;;;;;;;;;;4966943;28;20031;-77
2023/08/10 09:19:01;;;;;;;2.78;1.27;;;;;;;;;;4964539;28;20063;-77
2023/08/10 09:21:30;;;;;;;6.75;2.30;;;;;;;;;;4967906;28;20071;-78
2023/08/10 09:23:55;;;;;;;5.15;1.85;;;;;;;;;;4967747;28;20086;-79
2023/08/10 09:26:21;;;;;;;3.05;1.52;;;;;;;;;;4967639;28;20039;-78
2023/08/10 09:28:47;;;;;;;2.67;0.93;;;;;;;;;;4963335;28;20134;-77
2023/08/10 09:31:13;;;;;;;3.15;1.50;;;;;;;;;;4967221;28;20026;-77
2023/08/10 09:33:38;;;;;;;4.18;1.45;;;;;;;;;;4958123;28;20045;-77
2023/08/10 09:36:04;;;;;;;4.20;1.70;;;;;;;;;;4967144;28;20034;-77
2023/08/10 09:38:30;;;;;;;5.25;1.40;;;;;;;;;;4965344;28;20039;-79
2023/08/10 09:41:07;;;;;;;4.38;1.30;;;;;;;;;;4966256;28;20038;-77
2023/08/10 09:43:33;;;;;;;7.53;2.05;;;;;;;;;;4965512;28;20039;-77
2023/08/10 09:46:04;;;;;;;5.43;2.63;;;;;;;;;;4967449;28;20027;-78
2023/08/10 09:48:36;;;;;;;10.52;5.13;;;;;;;;;;4964437;28;20275;-77
2023/08/10 09:51:02;;;;;;;5.22;1.55;;;;;;;;;;4963200;28;20501;-77
2023/08/10 09:53:28;;;;;;;3.08;1.30;;;;;;;;;;4966660;28;20027;-78
2023/08/10 09:55:53;;;;;;;4.55;1.25;;;;;;;;;;4964168;28;20035;-77
2023/08/10 09:58:19;;;;;;;4.63;1.50;;;;;;;;;;4966918;28;20031;-77
2023/08/10 10:00:45;;;;;;;3.85;1.33;;;;;;;;;;4966182;28;20023;-79
2023/08/10 10:03:10;;;;;;;3.45;1.33;;;;;;;;;;4966979;28;20035;-78
2023/08/10 10:05:36;;;;;;;4.15;1.48;;;;;;;;;;4970465;28;20042;-78
2023/08/10 10:08:02;;;;;;;2.10;1.13;;;;;;;;;;4970898;28;20128;-79
2023/08/10 10:10:29;;;;;;;3.33;1.50;;;;;;;;;;4957916;28;20139;-78
2023/08/10 10:12:55;;;;;;;2.88;1.33;;;;;;;;;;4967714;28;20151;-79
2023/08/10 10:15:21;;;;;;;2.80;1.27;;;;;;;;;;4967576;28;20070;-77
2023/08/10 10:17:50;;;;;;;7.07;1.60;;;;;;;;;;4970890;28;20034;-77
2023/08/10 10:20:16;;;;;;;3.25;1.40;;;;;;;;;;4969373;28;20130;-77
2023/08/10 10:22:41;;;;;;;3.80;1.40;;;;;;;;;;4972546;28;20050;-79
2023/08/10 10:25:13;;;;;;;3.22;1.65;;;;;;;;;;4974655;28;20031;-79
2023/08/10 10:27:39;;;;;;;3.60;1.52;;;;;;;;;;4976192;28;20039;-78
2023/08/10 10:30:11;;;;;;;4.18;1.48;;;;;;;;;;4965161;28;20110;-79
2023/08/10 10:32:42;;;;;;;9.30;1.92;;;;;;;;;;4972476;28;20035;-78
2023/08/10 10:35:07;;;;;;;3.07;1.50;;;;;;;;;;4974944;28;20038;-79
2023/08/10 10:37:34;;;;;;;4.13;1.90;;;;;;;;;;4977054;28;20294;-79
2023/08/10 10:40:13;;;;;;;4.13;1.45;;;;;;;;;;4976864;28;20035;-79
2023/08/10 10:42:58;;;;;;;4.38;1.50;;;;;;;;;;4977176;28;20031;-78
2023/08/10 10:45:23;;;;;;;3.13;1.27;;;;;;;;;;4974869;28;20023;-79
2023/08/10 10:47:49;;;;;;;4.65;2.00;;;;;;;;;;4977092;28;20473;-80
2023/08/10 10:50:16;;;;;;;4.13;1.80;;;;;;;;;;4959097;28;20115;-79
2023/08/10 10:52:48;;;;;;;3.85;1.60;;;;;;;;;;4972044;28;20039;-79
2023/08/10 10:55:13;;;;;;;7.30;1.88;;;;;;;;;;4992696;28;20111;-80
2023/08/10 10:57:39;;;;;;;3.45;1.30;;;;;;;;;;4965909;28;20509;-79
2023/08/10 11:00:07;;;;;;;3.40;1.42;;;;;;;;;;4967090;28;20033;-78
2023/08/10 11:02:33;;;;;;;3.63;2.05;;;;;;;;;;4964035;28;20486;-78
2023/08/10 11:04:58;;;;;;;4.28;1.50;;;;;;;;;;4966239;28;20041;-78
2023/08/10 11:07:24;;;;;;;3.67;1.40;;;;;;;;;;4964445;28;20023;-79
2023/08/10 11:09:50;;;;;;;3.90;1.67;;;;;;;;;;4974089;28;20390;-78
2023/08/10 11:12:16;;;;;;;3.17;1.35;;;;;;;;;;4965067;28;20274;-78
2023/08/10 11:14:42;;;;;;;3.83;1.42;;;;;;;;;;4968053;28;20050;-79
2023/08/10 11:17:08;;;;;;;3.22;1.42;;;;;;;;;;4957326;28;20039;-78
2023/08/10 11:19:34;;;;;;;3.38;1.30;;;;;;;;;;4967575;28;20037;-78
2023/08/10 11:22:00;;;;;;;6.30;1.48;;;;;;;;;;4955712;28;20465;-78
2023/08/10 11:24:28;;;;;;;4.45;1.60;;;;;;;;;;4964950;28;20127;-78
2023/08/10 11:26:53;;;;;;;4.40;1.70;;;;;;;;;;4966270;28;20037;-79
2023/08/10 11:29:19;;;;;;;3.00;1.75;;;;;;;;;;4955386;28;20129;-79
2023/08/10 11:31:45;;;;;;;3.90;1.80;;;;;;;;;;4967697;28;20031;-79
2023/08/10 11:34:38;;;;;;;4.30;2.60;;;;;;;;;;4969436;28;20038;-79
2023/08/10 11:37:03;;;;;;;3.28;1.40;;;;;;;;;;4968598;28;20430;-79
2023/08/10 11:39:30;;;;;;;3.75;1.38;;;;;;;;;;4969060;28;20090;-79
2023/08/10 11:41:56;;;;;;;5.15;1.75;;;;;;;;;;4971904;28;20035;-79
2023/08/10 11:44:26;;;;;;;4.40;1.55;;;;;;;;;;4955952;28;20103;-78
2023/08/10 11:46:52;;;;;;;4.30;1.50;;;;;;;;;;4966187;28;20030;-78
2023/08/10 11:49:18;;;;;;;3.35;1.25;;;;;;;;;;4962121;28;20050;-79
2023/08/10 11:51:43;;;;;;;4.05;1.88;;;;;;;;;;4956556;28;20482;-79
2023/08/10 11:54:09;;;;;;;3.05;1.52;;;;;;;;;;4962883;28;20410;-79
2023/08/10 11:56:34;;;;;;;3.50;1.48;;;;;;;;;;4964166;28;20038;-79
2023/08/10 11:59:09;;;;;;;4.57;1.88;;;;;;;;;;4962855;28;20030;-78
2023/08/10 12:01:44;;;;;;;4.63;1.65;;;;;;;;;;4968279;28;20023;-78
2023/08/10 12:04:12;;;;;;;5.05;1.77;;;;;;;;;;4966163;28;20043;-79
2023/08/10 12:06:38;;;;;;;3.25;1.40;;;;;;;;;;4948543;28;20045;-79
2023/08/10 12:09:08;;;;;;;5.28;1.63;;;;;;;;;;4967220;28;20038;-78
2023/08/10 12:11:33;;;;;;;3.70;1.48;;;;;;;;;;4963229;28;20090;-79
2023/08/10 12:13:59;;;;;;;3.92;1.50;;;;;;;;;;4966902;28;20031;-78
2023/08/10 12:16:24;;;;;;;2.72;1.50;;;;;;;;;;4965926;28;20042;-79
2023/08/10 12:18:50;;;;;;;4.80;1.60;;;;;;;;;;4963659;28;20038;-78
2023/08/10 12:21:16;;;;;;;5.65;2.28;;;;;;;;;;4969384;28;20360;-79
2023/08/10 12:23:41;;;;;;;3.10;1.33;;;;;;;;;;4965224;28;20470;-79
2023/08/10 12:26:06;;;;;;;3.33;1.95;;;;;;;;;;5023088;22;20068;-77
2023/08/10 12:28:32;;;;;;;2.95;1.40;;;;;;;;;;5027391;28;20033;-77
2023/08/10 12:30:57;;;;;;;2.63;1.40;;;;;;;;;;5021849;28;20057;-77
2023/08/10 12:33:23;;;;;;;4.67;1.23;;;;;;;;;;5025730;28;20273;-77
2023/08/10 12:35:49;;;;;;;7.50;1.40;;;;;;;;;;5026819;28;20272;-77
2023/08/10 12:38:15;;;;;;;3.90;1.40;;;;;;;;;;5028499;28;20036;-77
2023/08/10 12:40:40;;;;;;;2.70;1.40;;;;;;;;;;5008385;28;20538;-77
2023/08/10 12:43:06;;;;;;;3.27;1.53;;;;;;;;;;5023070;28;20500;-78
2023/08/10 12:45:32;;;;;;;2.60;1.27;;;;;;;;;;5022901;28;20636;-78
2023/08/10 12:48:00;;;;;;;4.22;1.30;;;;;;;;;;5022068;28;20598;-78
2023/08/10 12:50:26;;;;;;;2.60;1.40;;;;;;;;;;5024322;28;20505;-77
2023/08/10 12:52:51;;;;;;;3.05;1.40;;;;;;;;;;4996556;28;20536;-78
2023/08/10 12:55:17;;;;;;;2.85;1.48;;;;;;;;;;5025345;28;20145;-77
2023/08/10 12:57:43;;;;;;;3.25;1.58;;;;;;;;;;5023553;28;20042;-77
2023/08/10 13:00:10;;;;;;;3.85;1.58;;;;;;;;;;5014080;28;20030;-77
2023/08/10 13:02:36;;;;;;;2.55;1.27;;;;;;;;;;5006781;28;20056;-78
2023/08/10 13:05:02;;;;;;;2.95;1.40;;;;;;;;;;5021742;28;20033;-78
2023/08/10 13:07:28;;;;;;;2.55;1.27;;;;;;;;;;5023896;28;20041;-77
2023/08/10 13:09:53;;;;;;;3.15;1.60;;;;;;;;;;5022285;28;20026;-78
2023/08/10 13:12:18;;;;;;;6.07;1.48;;;;;;;;;;5019208;28;20022;-77
2023/08/10 13:14:43;;;;;;;2.53;1.30;;;;;;;;;;5009136;28;20040;-77
2023/08/10 13:17:09;;;;;;;4.35;1.67;;;;;;;;;;5028810;28;20033;-77
2023/08/10 13:19:34;;;;;;;3.58;1.42;;;;;;;;;;5023386;28;20117;-77
2023/08/10 13:22:00;;;;;;;4.38;1.77;;;;;;;;;;5025793;28;20095;-78
2023/08/10 13:24:25;;;;;;;3.00;1.35;;;;;;;;;;5028324;28;20037;-77
2023/08/10 13:26:51;;;;;;;2.38;1.17;;;;;;;;;;5023529;28;20045;-77
2023/08/10 13:29:16;;;;;;;3.50;1.48;;;;;;;;;;5020604;28;20034;-77
2023/08/10 13:31:42;;;;;;;2.53;1.30;;;;;;;;;;5023912;28;20116;-77
2023/08/10 13:34:10;;;;;;;2.55;1.33;;;;;;;;;;5021351;28;20026;-78
2023/08/10 13:36:36;;;;;;;2.72;1.42;;;;;;;;;;5023955;28;20037;-78
2023/08/10 13:39:02;;;;;;;2.47;1.20;;;;;;;;;;5014708;28;20052;-78
2023/08/10 13:41:27;;;;;;;3.72;1.40;;;;;;;;;;5016047;28;20049;-77
2023/08/10 13:43:53;;;;;;;2.63;1.40;;;;;;;;;;5023943;28;20034;-78
2023/08/10 13:46:18;;;;;;;1.85;1.17;;;;;;;;;;5027782;28;20296;-78
2023/08/10 13:48:43;;;;;;;3.03;1.37;;;;;;;;;;5024445;28;20041;-78
2023/08/10 13:51:09;;;;;;;2.20;1.20;;;;;;;;;;5026211;28;20279;-78
2023/08/10 13:53:34;;;;;;;4.97;1.50;;;;;;;;;;5031868;28;20026;-78
2023/08/10 13:55:59;;;;;;;3.22;1.50;;;;;;;;;;5031242;28;20491;-78
2023/08/10 13:58:25;;;;;;;3.20;1.47;;;;;;;;;;5008481;28;20365;-78
2023/08/10 14:00:50;;;;;;;6.27;2.10;;;;;;;;;;5027319;28;20121;-77
2023/08/10 14:03:15;;;;;;;4.47;1.60;;;;;;;;;;5015752;28;20307;-78
2023/08/10 14:05:40;;;;;;;4.47;1.60;;;;;;;;;;5027364;28;20361;-78
2023/08/10 14:08:05;;;;;;;2.77;1.30;;;;;;;;;;5031376;28;20068;-78
2023/08/10 14:10:31;;;;;;;2.63;1.20;;;;;;;;;;5025757;28;20063;-78
2023/08/10 14:12:57;;;;;;;6.18;1.60;;;;;;;;;;5028238;28;20112;-77
2023/08/10 14:15:22;;;;;;;2.38;1.10;;;;;;;;;;5007506;28;20025;-77
2023/08/10 14:17:47;;;;;;;1.83;1.10;;;;;;;;;;5026228;28;20056;-78
2023/08/10 14:20:13;;;;;;;3.05;1.40;;;;;;;;;;5028498;28;20116;-78
2023/08/10 14:22:38;;;;;;;2.03;1.10;;;;;;;;;;5027842;28;20121;-78
2023/08/10 14:25:03;;;;;;;2.13;0.90;;;;;;;;;;5009874;28;20300;-78
2023/08/10 14:27:29;;;;;;;2.85;1.30;;;;;;;;;;5026163;28;20037;-78
2023/08/10 14:29:55;;;;;;;3.03;1.23;;;;;;;;;;4998440;28;20042;-77
2023/08/10 14:32:21;;;;;;;3.25;1.27;;;;;;;;;;5012541;28;20029;-78
2023/08/10 14:34:46;;;;;;;3.17;1.17;;;;;;;;;;5015609;28;20636;-76
2023/08/10 14:37:11;;;;;;;1.77;1.00;;;;;;;;;;5032387;28;20045;-78
2023/08/10 14:39:37;;;;;;;2.83;1.27;;;;;;;;;;5013474;28;20075;-77